10:06
Airports
History
Links
Donate
Help keep this website running!
PayPal
Bitcoin
This page is community maintained. The information is intended for PC simulator navigation or reference.
Always use approved charts for navigation.
EDLN
Monchengladbach
Monchengladbach (EDLN)
Mönchengladbach, Nordrhein-Westfalen, Germany (41066)
(C)
Lat/Lng:51° 13' 49.28" N / 6° 30' 16.19" E
51.230356 / 6.504496
Elevation:125'ft / 38mMSL
ID / ICAO:EDLN
Runways:1
Longest:13-31
Asphalt 1,191m / 3,907ft
Controlled:Yes
METAR09:50 GMT 2017-11-18
Altimeter: 30.12
Visibility: 6.2 statute miles
Wind: 8 knots (from VRB°)
Temp: 5°c / 41°f
Humidity: 80.9%

METAR: EDLN 180950Z VRB08KT 9999 BKN033 05/02 Q1020

(Powered by phpweather)
Airport Radio Frequencies
Ground: 121.92
Tower: 118.12
Approach: 133.77
Nearby VORs <50NM
Nearby NDBs
Runway 13 / 31
Dimensions:1190.9 x 29.9m 3907' x 98'ft
Surface:Asphalt
Edge Lights:Medium intensity
Runway 13 [A]Runway 31 [B]
Heading:128°TH 308°TH
Lat:
Lng:
51° 14' 1.4"N
6° 29' 52.03"E
51° 13' 37.16"N
6° 30' 40.34"E
TDZ:Yes, lighted
User Notes and Comments
51° 13' 49.28" N / 6° 30' 16.19" E
Distance To
Airport ID:
Nearby Airports
(C) Krefeld Egelsberg 11.4 NM
EDLK NNE 19°
(C) Duesseldorf 12.1 NM
EDDL ( WX ) ENE 70°
(U) Essen Mulheim 22.2 NM
EDLE ENE 57°
(C) GEILENKIRCHEN 27.4 NM
ETNG ( WX ) SW 227°
(C) NORVENICH 28.4 NM
ETNN ( WX ) SSE 166°
(C) NIEDERRHEIN 30.1 NM
EDLV NNW 328°
(C) Dinslaken Schwarze Heide 30.9 NM
EDLD NNE 30°
VFR Chart
Flight Planning at SkyVector.com